sensor_id;sensor_type;location;lat;lon;timestamp;pressure;altitude;pressure_sealevel;temperature;humidity
498;BME280;39559;48.630;9.162;2024-01-30T00:01:36;98873.41;;;-2.35;100.00
498;BME280;39559;48.630;9.162;2024-01-30T00:04:02;98866.75;;;-2.32;100.00
498;BME280;39559;48.630;9.162;2024-01-30T00:06:27;98868.97;;;-2.42;100.00
498;BME280;39559;48.630;9.162;2024-01-30T00:08:53;98862.22;;;-2.42;100.00
498;BME280;39559;48.630;9.162;2024-01-30T00:11:18;98874.09;;;-2.41;100.00
498;BME280;39559;48.630;9.162;2024-01-30T00:13:44;98864.13;;;-2.35;100.00
498;BME280;39559;48.630;9.162;2024-01-30T00:18:20;98870.03;;;-2.36;100.00
498;BME280;39559;48.630;9.162;2024-01-30T00:20:46;98875.91;;;-2.38;100.00
498;BME280;39559;48.630;9.162;2024-01-30T00:23:13;98871.94;;;-2.28;100.00
498;BME280;39559;48.630;9.162;2024-01-30T00:25:38;98866.97;;;-2.24;100.00
498;BME280;39559;48.630;9.162;2024-01-30T00:28:04;98871.09;;;-2.27;100.00
498;BME280;39559;48.630;9.162;2024-01-30T00:30:29;98867.66;;;-2.29;100.00
498;BME280;39559;48.630;9.162;2024-01-30T00:32:55;98863.19;;;-2.37;100.00
498;BME280;39559;48.630;9.162;2024-01-30T00:35:21;98868.78;;;-2.48;100.00
498;BME280;39559;48.630;9.162;2024-01-30T00:37:48;98868.66;;;-2.52;100.00
498;BME280;39559;48.630;9.162;2024-01-30T00:42:22;98871.22;;;-2.24;100.00
498;BME280;39559;48.630;9.162;2024-01-30T00:44:49;98874.75;;;-2.19;100.00
498;BME280;39559;48.630;9.162;2024-01-30T00:47:15;98871.31;;;-2.21;100.00
498;BME280;39559;48.630;9.162;2024-01-30T00:49:40;98871.22;;;-2.24;100.00
498;BME280;39559;48.630;9.162;2024-01-30T00:52:06;98870.94;;;-2.34;100.00
498;BME280;39559;48.630;9.162;2024-01-30T00:54:31;98865.22;;;-2.26;100.00
498;BME280;39559;48.630;9.162;2024-01-30T00:56:57;98865.56;;;-2.43;100.00
498;BME280;39559;48.630;9.162;2024-01-30T00:59:22;98872.06;;;-2.51;100.00
498;BME280;39559;48.630;9.162;2024-01-30T01:01:48;98874.81;;;-2.45;100.00
498;BME280;39559;48.630;9.162;2024-01-30T01:06:23;98867.59;;;-2.33;100.00
498;BME280;39559;48.630;9.162;2024-01-30T01:08:49;98863.16;;;-2.38;100.00
498;BME280;39559;48.630;9.162;2024-01-30T01:11:15;98871.44;;;-2.44;100.00
498;BME280;39559;48.630;9.162;2024-01-30T01:13:40;98868.84;;;-2.47;100.00
498;BME280;39559;48.630;9.162;2024-01-30T01:16:06;98880.44;;;-2.55;100.00
498;BME280;39559;48.630;9.162;2024-01-30T01:18:32;98881.09;;;-2.61;100.00
498;BME280;39559;48.630;9.162;2024-01-30T01:20:57;98878.44;;;-2.65;100.00
498;BME280;39559;48.630;9.162;2024-01-30T01:23:23;98880.72;;;-2.46;100.00
498;BME280;39559;48.630;9.162;2024-01-30T01:25:48;98875.22;;;-2.31;100.00
498;BME280;39559;48.630;9.162;2024-01-30T01:30:25;98870.53;;;-2.19;100.00
498;BME280;39559;48.630;9.162;2024-01-30T01:32:51;98867.06;;;-2.21;100.00
498;BME280;39559;48.630;9.162;2024-01-30T01:35:23;98863.63;;;-2.23;100.00
498;BME280;39559;48.630;9.162;2024-01-30T01:37:53;98862.84;;;-2.20;100.00
498;BME280;39559;48.630;9.162;2024-01-30T01:40:24;98853.41;;;-2.24;100.00
498;BME280;39559;48.630;9.162;2024-01-30T01:42:54;98867.59;;;-2.33;100.00
498;BME280;39559;48.630;9.162;2024-01-30T01:45:20;98868.94;;;-2.70;100.00
498;BME280;39559;48.630;9.162;2024-01-30T01:47:50;98872.56;;;-2.88;100.00
498;BME280;39559;48.630;9.162;2024-01-30T01:50:18;98876.50;;;-2.73;100.00
498;BME280;39559;48.630;9.162;2024-01-30T01:54:26;98874.88;;;-2.43;100.00
498;BME280;39559;48.630;9.162;2024-01-30T01:56:53;98866.53;;;-2.39;100.00
498;BME280;39559;48.630;9.162;2024-01-30T01:59:19;98865.66;;;-2.40;100.00
498;BME280;39559;48.630;9.162;2024-01-30T02:01:46;98869.13;;;-2.38;100.00
498;BME280;39559;48.630;9.162;2024-01-30T02:04:15;98863.78;;;-2.45;100.00
498;BME280;39559;48.630;9.162;2024-01-30T02:06:41;98865.50;;;-2.72;100.00
498;BME280;39559;48.630;9.162;2024-01-30T02:09:08;98870.28;;;-2.81;100.00
498;BME280;39559;48.630;9.162;2024-01-30T02:11:34;98874.03;;;-2.70;100.00
498;BME280;39559;48.630;9.162;2024-01-30T02:14:03;98879.63;;;-2.54;100.00
498;BME280;39559;48.630;9.162;2024-01-30T02:18:28;98878.22;;;-2.72;100.00
498;BME280;39559;48.630;9.162;2024-01-30T02:20:56;98870.16;;;-2.84;100.00
498;BME280;39559;48.630;9.162;2024-01-30T02:23:24;98878.50;;;-2.88;100.00
498;BME280;39559;48.630;9.162;2024-01-30T02:25:53;98885.53;;;-2.81;100.00
498;BME280;39559;48.630;9.162;2024-01-30T02:28:19;98881.41;;;-2.77;100.00
498;BME280;39559;48.630;9.162;2024-01-30T02:30:45;98879.88;;;-2.72;100.00
498;BME280;39559;48.630;9.162;2024-01-30T02:33:12;98877.59;;;-2.64;100.00
498;BME280;39559;48.630;9.162;2024-01-30T02:35:38;98870.81;;;-2.64;100.00
498;BME280;39559;48.630;9.162;2024-01-30T02:38:04;98868.69;;;-2.77;100.00
498;BME280;39559;48.630;9.162;2024-01-30T02:42:30;98877.56;;;-2.92;100.00
498;BME280;39559;48.630;9.162;2024-01-30T02:44:55;98882.13;;;-2.81;100.00
498;BME280;39559;48.630;9.162;2024-01-30T02:47:21;98882.28;;;-2.77;100.00
498;BME280;39559;48.630;9.162;2024-01-30T02:49:46;98871.41;;;-2.73;100.00
498;BME280;39559;48.630;9.162;2024-01-30T02:52:12;98867.38;;;-2.66;100.00
498;BME280;39559;48.630;9.162;2024-01-30T02:54:37;98874.53;;;-2.54;100.00
498;BME280;39559;48.630;9.162;2024-01-30T02:57:03;98866.00;;;-2.56;100.00
498;BME280;39559;48.630;9.162;2024-01-30T02:59:28;98868.59;;;-2.55;100.00
498;BME280;39559;48.630;9.162;2024-01-30T03:01:54;98861.66;;;-2.59;100.00
498;BME280;39559;48.630;9.162;2024-01-30T03:06:31;98860.75;;;-2.61;100.00
498;BME280;39559;48.630;9.162;2024-01-30T03:08:57;98855.03;;;-2.81;100.00
498;BME280;39559;48.630;9.162;2024-01-30T03:11:22;98858.84;;;-2.94;100.00
498;BME280;39559;48.630;9.162;2024-01-30T03:13:48;98863.44;;;-3.09;100.00
498;BME280;39559;48.630;9.162;2024-01-30T03:16:13;98871.38;;;-3.24;100.00
498;BME280;39559;48.630;9.162;2024-01-30T03:18:39;98873.53;;;-3.11;100.00
498;BME280;39559;48.630;9.162;2024-01-30T03:21:05;98870.09;;;-2.87;100.00
498;BME280;39559;48.630;9.162;2024-01-30T03:23:30;98868.16;;;-2.94;100.00
498;BME280;39559;48.630;9.162;2024-01-30T03:25:57;98868.25;;;-2.91;100.00
498;BME280;39559;48.630;9.162;2024-01-30T03:30:34;98870.03;;;-2.88;100.00
498;BME280;39559;48.630;9.162;2024-01-30T03:32:59;98873.69;;;-2.80;100.00
498;BME280;39559;48.630;9.162;2024-01-30T03:35:25;98871.97;;;-2.81;100.00
498;BME280;39559;48.630;9.162;2024-01-30T03:37:51;98870.88;;;-2.88;100.00
498;BME280;39559;48.630;9.162;2024-01-30T03:40:16;98869.88;;;-2.93;100.00
498;BME280;39559;48.630;9.162;2024-01-30T03:42:42;98867.31;;;-2.93;100.00
498;BME280;39559;48.630;9.162;2024-01-30T03:45:08;98864.00;;;-2.92;100.00
498;BME280;39559;48.630;9.162;2024-01-30T03:47:33;98862.41;;;-2.88;100.00
498;BME280;39559;48.630;9.162;2024-01-30T03:49:59;98868.41;;;-2.86;100.00
498;BME280;39559;48.630;9.162;2024-01-30T03:54:35;98864.66;;;-2.98;100.00
498;BME280;39559;48.630;9.162;2024-01-30T03:57:01;98868.97;;;-2.95;100.00
498;BME280;39559;48.630;9.162;2024-01-30T03:59:26;98871.84;;;-2.84;100.00
498;BME280;39559;48.630;9.162;2024-01-30T04:01:52;98869.25;;;-2.86;100.00
498;BME280;39559;48.630;9.162;2024-01-30T04:04:18;98870.69;;;-2.94;100.00
498;BME280;39559;48.630;9.162;2024-01-30T04:06:44;98874.81;;;-2.98;100.00
498;BME280;39559;48.630;9.162;2024-01-30T04:09:10;98875.88;;;-2.91;100.00
498;BME280;39559;48.630;9.162;2024-01-30T04:11:36;98877.09;;;-3.05;100.00
498;BME280;39559;48.630;9.162;2024-01-30T04:14:02;98878.50;;;-3.14;100.00
498;BME280;39559;48.630;9.162;2024-01-30T04:18:37;98872.03;;;-3.05;100.00
498;BME280;39559;48.630;9.162;2024-01-30T04:21:03;98877.19;;;-3.02;100.00
498;BME280;39559;48.630;9.162;2024-01-30T04:23:28;98871.91;;;-3.09;100.00
498;BME280;39559;48.630;9.162;2024-01-30T04:25:54;98867.50;;;-3.14;100.00
498;BME280;39559;48.630;9.162;2024-01-30T04:28:19;98865.81;;;-3.14;100.00
498;BME280;39559;48.630;9.162;2024-01-30T04:30:45;98863.50;;;-3.06;100.00
498;BME280;39559;48.630;9.162;2024-01-30T04:33:10;98865.03;;;-3.11;100.00
498;BME280;39559;48.630;9.162;2024-01-30T04:35:36;98870.88;;;-3.14;100.00
498;BME280;39559;48.630;9.162;2024-01-30T04:38:02;98869.13;;;-3.15;100.00
498;BME280;39559;48.630;9.162;2024-01-30T04:42:39;98877.69;;;-3.37;100.00
498;BME280;39559;48.630;9.162;2024-01-30T04:45:05;98878.41;;;-3.41;100.00
498;BME280;39559;48.630;9.162;2024-01-30T04:47:31;98879.78;;;-3.51;100.00
498;BME280;39559;48.630;9.162;2024-01-30T04:49:56;98890.41;;;-3.37;100.00
498;BME280;39559;48.630;9.162;2024-01-30T04:52:22;98878.19;;;-3.23;100.00
498;BME280;39559;48.630;9.162;2024-01-30T04:54:47;98875.38;;;-3.06;100.00
498;BME280;39559;48.630;9.162;2024-01-30T04:57:13;98878.13;;;-3.24;100.00
498;BME280;39559;48.630;9.162;2024-01-30T04:59:39;98882.25;;;-3.28;100.00
498;BME280;39559;48.630;9.162;2024-01-30T05:02:04;98889.00;;;-3.53;100.00
498;BME280;39559;48.630;9.162;2024-01-30T05:06:41;98901.72;;;-3.75;100.00
498;BME280;39559;48.630;9.162;2024-01-30T05:09:07;98910.25;;;-3.73;100.00
498;BME280;39559;48.630;9.162;2024-01-30T05:11:39;98910.44;;;-3.69;100.00
498;BME280;39559;48.630;9.162;2024-01-30T05:14:06;98913.09;;;-3.65;100.00
498;BME280;39559;48.630;9.162;2024-01-30T05:16:32;98908.56;;;-3.50;100.00
498;BME280;39559;48.630;9.162;2024-01-30T05:18:58;98902.72;;;-3.48;100.00
498;BME280;39559;48.630;9.162;2024-01-30T05:21:24;98896.13;;;-3.42;100.00
498;BME280;39559;48.630;9.162;2024-01-30T05:23:50;98895.25;;;-3.19;100.00
498;BME280;39559;48.630;9.162;2024-01-30T05:26:15;98895.91;;;-3.24;100.00
498;BME280;39559;48.630;9.162;2024-01-30T05:30:43;98889.22;;;-3.47;100.00
498;BME280;39559;48.630;9.162;2024-01-30T05:33:09;98890.56;;;-3.56;100.00
498;BME280;39559;48.630;9.162;2024-01-30T05:35:37;98887.34;;;-3.52;100.00
498;BME280;39559;48.630;9.162;2024-01-30T05:38:03;98898.00;;;-3.38;100.00
498;BME280;39559;48.630;9.162;2024-01-30T05:40:28;98896.38;;;-3.36;100.00
498;BME280;39559;48.630;9.162;2024-01-30T05:42:54;98898.59;;;-3.45;100.00
498;BME280;39559;48.630;9.162;2024-01-30T05:45:19;98898.59;;;-3.44;100.00
498;BME280;39559;48.630;9.162;2024-01-30T05:47:45;98905.16;;;-3.51;100.00
498;BME280;39559;48.630;9.162;2024-01-30T05:50:11;98900.22;;;-3.46;100.00
498;BME280;39559;48.630;9.162;2024-01-30T05:54:46;98907.25;;;-3.39;100.00
498;BME280;39559;48.630;9.162;2024-01-30T05:57:12;98906.59;;;-3.57;100.00
498;BME280;39559;48.630;9.162;2024-01-30T05:59:38;98914.34;;;-3.54;100.00
498;BME280;39559;48.630;9.162;2024-01-30T06:02:03;98911.03;;;-3.52;100.00
498;BME280;39559;48.630;9.162;2024-01-30T06:04:29;98907.19;;;-3.40;100.00
498;BME280;39559;48.630;9.162;2024-01-30T06:06:54;98911.28;;;-3.45;100.00
498;BME280;39559;48.630;9.162;2024-01-30T06:09:20;98912.53;;;-3.57;100.00
498;BME280;39559;48.630;9.162;2024-01-30T06:11:46;98913.81;;;-3.68;100.00
498;BME280;39559;48.630;9.162;2024-01-30T06:14:11;98922.84;;;-3.76;100.00
498;BME280;39559;48.630;9.162;2024-01-30T06:18:48;98916.50;;;-3.65;100.00
498;BME280;39559;48.630;9.162;2024-01-30T06:21:14;98913.63;;;-3.50;100.00
498;BME280;39559;48.630;9.162;2024-01-30T06:23:39;98914.09;;;-3.38;100.00
498;BME280;39559;48.630;9.162;2024-01-30T06:26:09;98913.56;;;-3.29;100.00
498;BME280;39559;48.630;9.162;2024-01-30T06:28:35;98905.97;;;-3.28;100.00
498;BME280;39559;48.630;9.162;2024-01-30T06:31:01;98909.38;;;-3.27;100.00
498;BME280;39559;48.630;9.162;2024-01-30T06:33:27;98903.34;;;-3.31;100.00
498;BME280;39559;48.630;9.162;2024-01-30T06:35:52;98900.09;;;-3.51;100.00
498;BME280;39559;48.630;9.162;2024-01-30T06:38:18;98915.31;;;-3.73;100.00
498;BME280;39559;48.630;9.162;2024-01-30T06:42:50;98900.22;;;-3.70;100.00
498;BME280;39559;48.630;9.162;2024-01-30T06:45:15;98909.19;;;-3.80;100.00
498;BME280;39559;48.630;9.162;2024-01-30T06:47:41;98919.06;;;-3.86;100.00
498;BME280;39559;48.630;9.162;2024-01-30T06:50:07;98915.28;;;-3.97;100.00
498;BME280;39559;48.630;9.162;2024-01-30T06:52:33;98929.56;;;-3.77;100.00
498;BME280;39559;48.630;9.162;2024-01-30T06:54:58;98936.09;;;-3.61;100.00
498;BME280;39559;48.630;9.162;2024-01-30T06:57:24;98922.06;;;-3.51;100.00
498;BME280;39559;48.630;9.162;2024-01-30T06:59:49;98919.75;;;-3.45;100.00
498;BME280;39559;48.630;9.162;2024-01-30T07:02:15;98920.66;;;-3.43;100.00
498;BME280;39559;48.630;9.162;2024-01-30T07:06:52;98920.41;;;-3.51;100.00
498;BME280;39559;48.630;9.162;2024-01-30T07:09:18;98923.69;;;-3.53;100.00
498;BME280;39559;48.630;9.162;2024-01-30T07:11:44;98929.56;;;-3.77;100.00
498;BME280;39559;48.630;9.162;2024-01-30T07:14:10;98934.47;;;-3.59;100.00
498;BME280;39559;48.630;9.162;2024-01-30T07:16:36;98939.31;;;-3.42;100.00
498;BME280;39559;48.630;9.162;2024-01-30T07:19:01;98938.84;;;-3.32;100.00
498;BME280;39559;48.630;9.162;2024-01-30T07:21:27;98939.38;;;-3.17;100.00
498;BME280;39559;48.630;9.162;2024-01-30T07:23:54;98940.13;;;-3.19;100.00
498;BME280;39559;48.630;9.162;2024-01-30T07:26:21;98931.75;;;-3.17;100.00
498;BME280;39559;48.630;9.162;2024-01-30T07:30:55;98925.41;;;-3.04;100.00
498;BME280;39559;48.630;9.162;2024-01-30T07:33:21;98925.47;;;-3.02;100.00
498;BME280;39559;48.630;9.162;2024-01-30T07:35:46;98926.50;;;-2.97;100.00
498;BME280;39559;48.630;9.162;2024-01-30T07:38:12;98932.44;;;-2.97;100.00
498;BME280;39559;48.630;9.162;2024-01-30T07:40:37;98925.97;;;-2.88;100.00
498;BME280;39559;48.630;9.162;2024-01-30T07:43:03;98925.97;;;-2.88;100.00
498;BME280;39559;48.630;9.162;2024-01-30T07:45:29;98925.59;;;-2.99;100.00
498;BME280;39559;48.630;9.162;2024-01-30T07:47:58;98921.72;;;-2.88;100.00
498;BME280;39559;48.630;9.162;2024-01-30T07:50:25;98922.63;;;-2.86;100.00
498;BME280;39559;48.630;9.162;2024-01-30T07:55:03;98922.69;;;-2.84;100.00
498;BME280;39559;48.630;9.162;2024-01-30T07:57:29;98935.56;;;-2.80;100.00
498;BME280;39559;48.630;9.162;2024-01-30T07:59:55;98934.91;;;-2.74;100.00
498;BME280;39559;48.630;9.162;2024-01-30T08:02:20;98937.22;;;-2.56;100.00
498;BME280;39559;48.630;9.162;2024-01-30T08:04:46;98932.38;;;-2.48;100.00
498;BME280;39559;48.630;9.162;2024-01-30T08:07:14;98933.50;;;-2.39;100.00
498;BME280;39559;48.630;9.162;2024-01-30T08:09:39;98939.50;;;-2.38;100.00
498;BME280;39559;48.630;9.162;2024-01-30T08:12:05;98936.06;;;-2.39;100.00
498;BME280;39559;48.630;9.162;2024-01-30T08:14:31;98940.34;;;-2.38;100.00
498;BME280;39559;48.630;9.162;2024-01-30T08:19:00;98932.38;;;-1.94;100.00
498;BME280;39559;48.630;9.162;2024-01-30T08:21:26;98933.41;;;-1.87;100.00
498;BME280;39559;48.630;9.162;2024-01-30T08:23:52;98929.59;;;-1.73;100.00
498;BME280;39559;48.630;9.162;2024-01-30T08:26:17;98930.59;;;-1.68;100.00
498;BME280;39559;48.630;9.162;2024-01-30T08:28:43;98926.03;;;-1.49;100.00
498;BME280;39559;48.630;9.162;2024-01-30T08:31:10;98920.47;;;-1.36;100.00
498;BME280;39559;48.630;9.162;2024-01-30T08:33:37;98914.88;;;-1.23;100.00
498;BME280;39559;48.630;9.162;2024-01-30T08:36:02;98915.78;;;-1.21;100.00
498;BME280;39559;48.630;9.162;2024-01-30T08:38:28;98911.72;;;-1.14;100.00
498;BME280;39559;48.630;9.162;2024-01-30T08:43:02;98908.16;;;-0.89;100.00
498;BME280;39559;48.630;9.162;2024-01-30T08:45:29;98907.63;;;-0.75;100.00
498;BME280;39559;48.630;9.162;2024-01-30T08:47:56;98912.19;;;-0.64;100.00
498;BME280;39559;48.630;9.162;2024-01-30T08:50:22;98909.50;;;-0.68;100.00
498;BME280;39559;48.630;9.162;2024-01-30T08:52:47;98913.28;;;-0.54;100.00
498;BME280;39559;48.630;9.162;2024-01-30T08:55:13;98907.38;;;-0.51;100.00
498;BME280;39559;48.630;9.162;2024-01-30T08:57:38;98905.88;;;-0.43;100.00
498;BME280;39559;48.630;9.162;2024-01-30T09:00:05;98906.28;;;-0.26;100.00
498;BME280;39559;48.630;9.162;2024-01-30T09:02:32;98913.50;;;-0.45;100.00
498;BME280;39559;48.630;9.162;2024-01-30T09:07:04;98917.09;;;-0.36;100.00
498;BME280;39559;48.630;9.162;2024-01-30T09:09:33;98925.63;;;-0.36;100.00
498;BME280;39559;48.630;9.162;2024-01-30T09:11:59;98914.50;;;-0.02;100.00
498;BME280;39559;48.630;9.162;2024-01-30T09:14:29;98925.13;;;0.17;100.00
498;BME280;39559;48.630;9.162;2024-01-30T09:16:56;98924.31;;;0.19;100.00
498;BME280;39559;48.630;9.162;2024-01-30T09:19:21;98918.78;;;0.39;100.00
498;BME280;39559;48.630;9.162;2024-01-30T09:21:47;98926.25;;;0.71;100.00
498;BME280;39559;48.630;9.162;2024-01-30T09:24:12;98919.13;;;0.99;100.00
498;BME280;39559;48.630;9.162;2024-01-30T09:26:38;98909.75;;;0.99;100.00
498;BME280;39559;48.630;9.162;2024-01-30T09:31:10;98912.47;;;1.08;100.00
498;BME280;39559;48.630;9.162;2024-01-30T09:33:35;98917.63;;;1.59;100.00
498;BME280;39559;48.630;9.162;2024-01-30T09:36:01;98903.63;;;1.95;100.00
498;BME280;39559;48.630;9.162;2024-01-30T09:38:27;98893.72;;;2.18;100.00
498;BME280;39559;48.630;9.162;2024-01-30T09:40:54;98884.53;;;2.32;100.00
498;BME280;39559;48.630;9.162;2024-01-30T09:43:23;98883.84;;;2.44;100.00
498;BME280;39559;48.630;9.162;2024-01-30T09:45:53;98888.31;;;2.63;100.00
498;BME280;39559;48.630;9.162;2024-01-30T09:48:19;98888.28;;;2.59;100.00
498;BME280;39559;48.630;9.162;2024-01-30T09:50:46;98881.56;;;2.70;100.00
498;BME280;39559;48.630;9.162;2024-01-30T09:55:09;98886.97;;;2.96;100.00
498;BME280;39559;48.630;9.162;2024-01-30T09:57:35;98883.78;;;3.22;100.00
498;BME280;39559;48.630;9.162;2024-01-30T10:00:03;98882.28;;;3.45;100.00
498;BME280;39559;48.630;9.162;2024-01-30T10:02:31;98880.91;;;3.84;100.00
498;BME280;39559;48.630;9.162;2024-01-30T10:04:57;98874.16;;;4.03;100.00
498;BME280;39559;48.630;9.162;2024-01-30T10:07:23;98881.88;;;4.05;100.00
498;BME280;39559;48.630;9.162;2024-01-30T10:09:48;98878.56;;;4.26;100.00
498;BME280;39559;48.630;9.162;2024-01-30T10:12:15;98877.75;;;4.33;100.00
498;BME280;39559;48.630;9.162;2024-01-30T10:14:41;98880.25;;;4.21;100.00
498;BME280;39559;48.630;9.162;2024-01-30T10:19:11;98872.44;;;4.01;100.00
498;BME280;39559;48.630;9.162;2024-01-30T10:21:37;98869.00;;;4.02;100.00
498;BME280;39559;48.630;9.162;2024-01-30T10:24:03;98870.75;;;4.06;100.00
498;BME280;39559;48.630;9.162;2024-01-30T10:26:29;98876.78;;;4.11;100.00
498;BME280;39559;48.630;9.162;2024-01-30T10:28:55;98869.09;;;4.16;100.00
498;BME280;39559;48.630;9.162;2024-01-30T10:31:20;98864.84;;;4.22;100.00
498;BME280;39559;48.630;9.162;2024-01-30T10:33:46;98864.03;;;4.36;100.00
498;BME280;39559;48.630;9.162;2024-01-30T10:36:14;98861.41;;;4.19;100.00
498;BME280;39559;48.630;9.162;2024-01-30T10:38:43;98864.81;;;4.18;100.00
498;BME280;39559;48.630;9.162;2024-01-30T10:43:15;98864.84;;;4.22;100.00
498;BME280;39559;48.630;9.162;2024-01-30T10:45:49;98864.09;;;4.47;100.00
498;BME280;39559;48.630;9.162;2024-01-30T10:48:16;98859.88;;;4.70;100.00
498;BME280;39559;48.630;9.162;2024-01-30T10:50:45;98854.78;;;4.83;100.00
498;BME280;39559;48.630;9.162;2024-01-30T10:53:12;98853.09;;;5.02;100.00
498;BME280;39559;48.630;9.162;2024-01-30T10:55:38;98859.09;;;4.94;100.00
498;BME280;39559;48.630;9.162;2024-01-30T10:58:05;98853.13;;;5.17;100.00
498;BME280;39559;48.630;9.162;2024-01-30T11:00:31;98856.56;;;5.11;100.00
498;BME280;39559;48.630;9.162;2024-01-30T11:02:58;98860.88;;;5.38;100.00
498;BME280;39559;48.630;9.162;2024-01-30T11:07:16;98845.41;;;5.57;100.00
498;BME280;39559;48.630;9.162;2024-01-30T11:09:50;98848.84;;;5.61;100.00
498;BME280;39559;48.630;9.162;2024-01-30T11:12:16;98846.25;;;5.44;100.00
498;BME280;39559;48.630;9.162;2024-01-30T11:14:42;98847.13;;;5.30;100.00
498;BME280;39559;48.630;9.162;2024-01-30T11:17:09;98846.25;;;5.44;100.00
498;BME280;39559;48.630;9.162;2024-01-30T11:19:37;98839.41;;;5.55;100.00
498;BME280;39559;48.630;9.162;2024-01-30T11:22:03;98841.97;;;5.60;100.00
498;BME280;39559;48.630;9.162;2024-01-30T11:24:39;98844.53;;;5.60;100.00
498;BME280;39559;48.630;9.162;2024-01-30T11:27:08;98841.06;;;5.84;100.00
498;BME280;39559;48.630;9.162;2024-01-30T11:31:19;98836.75;;;5.92;100.00
498;BME280;39559;48.630;9.162;2024-01-30T11:33:45;98842.75;;;6.11;100.00
498;BME280;39559;48.630;9.162;2024-01-30T11:36:12;98840.16;;;6.23;100.00
498;BME280;39559;48.630;9.162;2024-01-30T11:38:38;98838.44;;;6.16;100.00
498;BME280;39559;48.630;9.162;2024-01-30T11:41:04;98831.47;;;6.41;100.00
498;BME280;39559;48.630;9.162;2024-01-30T11:43:30;98836.59;;;6.55;100.00
498;BME280;39559;48.630;9.162;2024-01-30T11:45:55;98838.25;;;6.64;100.00
498;BME280;39559;48.630;9.162;2024-01-30T11:48:21;98832.91;;;6.99;100.00
498;BME280;39559;48.630;9.162;2024-01-30T11:50:47;98830.38;;;6.91;100.00
498;BME280;39559;48.630;9.162;2024-01-30T11:55:19;98815.56;;;7.15;100.00
498;BME280;39559;48.630;9.162;2024-01-30T11:57:45;98811.19;;;7.25;100.00
498;BME280;39559;48.630;9.162;2024-01-30T12:00:15;98812.91;;;7.24;100.00
498;BME280;39559;48.630;9.162;2024-01-30T12:02:41;98803.50;;;7.14;100.00
498;BME280;39559;48.630;9.162;2024-01-30T12:05:07;98804.25;;;7.33;100.00
498;BME280;39559;48.630;9.162;2024-01-30T12:07:33;98799.94;;;7.30;100.00
498;BME280;39559;48.630;9.162;2024-01-30T12:09:59;98797.28;;;7.41;100.00
498;BME280;39559;48.630;9.162;2024-01-30T12:12:26;98794.78;;;7.27;100.00
498;BME280;39559;48.630;9.162;2024-01-30T12:14:53;98792.00;;;7.54;100.00
498;BME280;39559;48.630;9.162;2024-01-30T12:19:26;98784.03;;;7.77;100.00
498;BME280;39559;48.630;9.162;2024-01-30T12:21:56;98780.41;;;7.92;100.00
498;BME280;39559;48.630;9.162;2024-01-30T12:24:27;98783.13;;;7.79;100.00
498;BME280;39559;48.630;9.162;2024-01-30T12:26:57;98778.56;;;8.03;100.00
498;BME280;39559;48.630;9.162;2024-01-30T12:29:22;98773.25;;;8.14;100.00
498;BME280;39559;48.630;9.162;2024-01-30T12:31:48;98775.84;;;8.12;100.00
498;BME280;39559;48.630;9.162;2024-01-30T12:34:14;98774.56;;;8.49;100.00
498;BME280;39559;48.630;9.162;2024-01-30T12:36:42;98770.63;;;8.83;100.00
498;BME280;39559;48.630;9.162;2024-01-30T12:39:11;98762.53;;;9.03;100.00
498;BME280;39559;48.630;9.162;2024-01-30T12:43:25;98763.22;;;9.66;100.00
498;BME280;39559;48.630;9.162;2024-01-30T12:45:52;98756.53;;;9.99;100.00
498;BME280;39559;48.630;9.162;2024-01-30T12:48:18;98763.75;;;10.26;100.00
498;BME280;39559;48.630;9.162;2024-01-30T12:50:44;98749.31;;;10.56;100.00
498;BME280;39559;48.630;9.162;2024-01-30T12:53:09;98749.81;;;10.73;100.00
498;BME280;39559;48.630;9.162;2024-01-30T12:55:35;98756.94;;;11.01;100.00
498;BME280;39559;48.630;9.162;2024-01-30T12:58:01;98754.34;;;11.37;100.00
498;BME280;39559;48.630;9.162;2024-01-30T13:00:27;98752.25;;;11.51;100.00
498;BME280;39559;48.630;9.162;2024-01-30T13:02:52;98752.53;;;11.39;92.49
498;BME280;39559;48.630;9.162;2024-01-30T13:07:22;98760.59;;;11.30;88.00
498;BME280;39559;48.630;9.162;2024-01-30T13:09:48;98754.38;;;11.36;86.18
498;BME280;39559;48.630;9.162;2024-01-30T13:12:13;98757.25;;;11.25;84.99
498;BME280;39559;48.630;9.162;2024-01-30T13:14:39;98763.28;;;11.25;85.88
498;BME280;39559;48.630;9.162;2024-01-30T13:17:05;98766.31;;;11.08;88.70
498;BME280;39559;48.630;9.162;2024-01-30T13:19:30;98762.84;;;11.08;87.59
498;BME280;39559;48.630;9.162;2024-01-30T13:21:55;98756.94;;;11.01;87.72
498;BME280;39559;48.630;9.162;2024-01-30T13:24:21;98757.00;;;10.98;82.10
498;BME280;39559;48.630;9.162;2024-01-30T13:26:47;98767.22;;;11.06;84.53
498;BME280;39559;48.630;9.162;2024-01-30T13:31:23;98762.66;;;11.16;86.32
498;BME280;39559;48.630;9.162;2024-01-30T13:33:48;98767.56;;;11.28;80.11
498;BME280;39559;48.630;9.162;2024-01-30T13:36:14;98764.09;;;11.27;81.96
498;BME280;39559;48.630;9.162;2024-01-30T13:38:40;98764.63;;;11.40;80.46
498;BME280;39559;48.630;9.162;2024-01-30T13:41:06;98763.22;;;11.28;80.61
498;BME280;39559;48.630;9.162;2024-01-30T13:43:31;98760.31;;;11.74;79.31
498;BME280;39559;48.630;9.162;2024-01-30T13:45:57;98751.94;;;12.26;84.44
498;BME280;39559;48.630;9.162;2024-01-30T13:48:22;98758.97;;;12.82;79.64
498;BME280;39559;48.630;9.162;2024-01-30T13:50:48;98759.81;;;12.83;70.95
498;BME280;39559;48.630;9.162;2024-01-30T13:55:24;98761.91;;;12.72;75.19
498;BME280;39559;48.630;9.162;2024-01-30T13:57:49;98756.69;;;12.12;76.76
498;BME280;39559;48.630;9.162;2024-01-30T14:00:15;98756.53;;;11.85;75.68
498;BME280;39559;48.630;9.162;2024-01-30T14:02:42;98761.91;;;11.46;77.60
498;BME280;39559;48.630;9.162;2024-01-30T14:05:08;98755.97;;;11.41;77.57
498;BME280;39559;48.630;9.162;2024-01-30T14:07:35;98754.41;;;11.34;78.94
498;BME280;39559;48.630;9.162;2024-01-30T14:10:01;98750.84;;;11.37;78.27
498;BME280;39559;48.630;9.162;2024-01-30T14:12:26;98752.78;;;11.30;78.63
498;BME280;39559;48.630;9.162;2024-01-30T14:14:52;98760.09;;;11.14;78.77
498;BME280;39559;48.630;9.162;2024-01-30T14:19:23;98753.06;;;11.18;79.43
498;BME280;39559;48.630;9.162;2024-01-30T14:21:48;98753.03;;;11.19;82.07
498;BME280;39559;48.630;9.162;2024-01-30T14:24:14;98762.00;;;11.06;82.27